Time;durP1;ratioP1;P1;durP2;ratioP2;P2;SDS_P1;SDS_P2;PMS_P1;PMS_P2;Temp;Humidity;BMP_temperature;BMP_pressure;BME280_temperature;BME280_humidity;BME280_pressure;Samples;Min_cycle;Max_cycle;Signal;HPM_P1;HPM_P2
2021/12/31 00:01:12;;;;;;;13.13;2.90;;;19.40;74.10;;;;;;5031861;28;20104;-62
2021/12/31 00:03:38;;;;;;;;;;;19.20;74.50;;;;;;5031347;28;20124;-63
2021/12/31 00:06:05;;;;;;;5.70;2.20;;;19.20;74.70;;;;;;5015223;28;19964;-62
2021/12/31 00:08:32;;;;;;;12.77;2.47;;;19.10;75.40;;;;;;5032823;28;20070;-62
2021/12/31 00:10:59;;;;;;;10.85;2.70;;;19.10;75.40;;;;;;5030792;28;20593;-62
2021/12/31 00:13:27;;;;;;;9.15;2.22;;;19.10;75.40;;;;;;5032921;28;20117;-62
2021/12/31 00:15:54;;;;;;;17.77;8.25;;;19.00;75.60;;;;;;5014328;28;20416;-63
2021/12/31 00:18:21;;;;;;;16.13;3.90;;;19.00;76.70;;;;;;5030941;28;20543;-62
2021/12/31 00:20:48;;;;;;;8.25;2.60;;;18.90;76.80;;;;;;5030621;28;20136;-62
2021/12/31 00:23:17;;;;;;;11.13;3.10;;;18.80;77.30;;;;;;5031099;28;20132;-62
2021/12/31 00:25:44;;;;;;;11.98;3.00;;;18.80;77.60;;;;;;5032013;28;20074;-62
2021/12/31 00:28:11;;;;;;;8.43;2.10;;;18.70;78.10;;;;;;5031898;28;20135;-62
2021/12/31 00:30:39;;;;;;;12.88;2.95;;;18.70;78.70;;;;;;5030042;28;20078;-63
2021/12/31 00:33:08;;;;;;;12.60;2.30;;;18.50;79.10;;;;;;5032088;28;20070;-63
2021/12/31 00:35:36;;;;;;;15.75;3.38;;;18.50;79.50;;;;;;5031309;28;20107;-62
2021/12/31 00:38:03;;;;;;;14.05;3.08;;;18.50;79.80;;;;;;5030109;28;20495;-63
2021/12/31 00:40:30;;;;;;;17.00;3.30;;;18.40;80.00;;;;;;5030760;28;20466;-63
2021/12/31 00:42:56;;;;;;;14.73;3.30;;;18.40;80.50;;;;;;5032421;28;20066;-62
2021/12/31 00:45:27;;;;;;;7.00;2.88;;;18.30;80.70;;;;;;5032090;28;20520;-63
2021/12/31 00:47:54;;;;;;;12.93;2.97;;;18.30;81.10;;;;;;5015730;28;20079;-62
2021/12/31 00:50:21;;;;;;;15.10;3.80;;;18.20;81.30;;;;;;5030107;28;20443;-62
2021/12/31 00:52:48;;;;;;;12.77;3.78;;;18.20;81.80;;;;;;5031082;28;20551;-62
2021/12/31 00:55:14;;;;;;;13.05;4.88;;;18.20;82.30;;;;;;5030881;28;20204;-63
2021/12/31 00:57:41;;;;;;;19.65;4.18;;;18.10;82.80;;;;;;5030619;28;20133;-65
2021/12/31 01:00:10;;;;;;;15.80;4.22;;;18.10;83.10;;;;;;5029912;28;20212;-63
2021/12/31 01:02:38;;;;;;;21.08;4.28;;;18.10;86.80;;;;;;5012954;28;20562;-62
2021/12/31 01:05:05;;;;;;;17.30;5.03;;;18.00;92.60;;;;;;5031019;28;20139;-64
2021/12/31 01:07:32;;;;;;;7.75;2.65;;;17.90;94.60;;;;;;5031621;28;20078;-62
2021/12/31 01:10:00;;;;;;;7.70;2.22;;;17.80;95.80;;;;;;5015634;28;20073;-63
2021/12/31 01:12:27;;;;;;;17.67;3.10;;;17.80;96.50;;;;;;5014692;28;20081;-64
2021/12/31 01:14:58;;;;;;;6.93;2.03;;;17.70;97.10;;;;;;5013911;28;20543;-64
2021/12/31 01:18:04;;;;;;;12.05;2.28;;;17.60;98.00;;;;;;5029160;28;20546;-64
2021/12/31 01:20:14;;;;;;;22.30;3.58;;;17.60;98.40;;;;;;5029574;28;20124;-62
2021/12/31 01:22:41;;;;;;;16.75;5.95;;;17.50;99.00;;;;;;5031020;28;20113;-63
2021/12/31 01:25:08;;;;;;;7.50;3.03;;;17.40;99.90;;;;;;5030462;28;20077;-63
2021/12/31 01:27:36;;;;;;;12.60;4.20;;;17.40;99.90;;;;;;5014849;28;20089;-63
2021/12/31 01:30:05;;;;;;;12.32;3.50;;;17.40;99.90;;;;;;5013244;28;20493;-65
2021/12/31 01:32:31;;;;;;;10.55;3.78;;;17.40;99.90;;;;;;5029407;28;20089;-62
2021/12/31 01:34:58;;;;;;;12.05;2.88;;;17.30;99.90;;;;;;5013983;28;20523;-63
2021/12/31 01:37:25;;;;;;;11.55;2.85;;;17.30;99.90;;;;;;5013507;28;20143;-62
2021/12/31 01:39:51;;;;;;;14.10;2.72;;;17.20;99.90;;;;;;5030508;28;20181;-63
2021/12/31 01:42:22;;;;;;;8.88;2.13;;;17.20;99.90;;;;;;5028466;28;20082;-63
2021/12/31 01:44:57;;;;;;;9.43;2.78;;;17.10;99.90;;;;;;5014457;28;20073;-63
2021/12/31 01:47:34;;;;;;;7.45;2.25;;;17.10;99.90;;;;;;5022482;28;20101;-63
2021/12/31 01:50:05;;;;;;;;;;;17.10;99.90;;;;;;5030468;28;20102;-63
2021/12/31 01:52:31;;;;;;;10.93;2.72;;;17.00;99.90;;;;;;5014591;28;19997;-64
2021/12/31 01:54:58;;;;;;;6.57;2.30;;;17.00;99.90;;;;;;5013641;28;20161;-63
2021/12/31 01:57:25;;;;;;;7.57;1.98;;;17.00;99.90;;;;;;5028128;28;20116;-64
2021/12/31 02:13:36;;;;;;;7.95;1.80;;;17.00;99.90;;;;;;5128782;27;20455;-63
2021/12/31 02:16:03;;;;;;;8.38;2.42;;;16.90;99.90;;;;;;5109254;27;20083;-60
2021/12/31 02:18:31;;;;;;;11.95;3.10;;;16.80;99.90;;;;;;5111201;28;20085;-63
2021/12/31 02:20:57;;;;;;;8.63;2.95;;;16.70;99.90;;;;;;5109985;28;20068;-65
2021/12/31 02:23:25;;;;;;;11.07;2.88;;;16.60;99.90;;;;;;5110961;28;20130;-63
2021/12/31 02:25:53;;;;;;;12.40;3.40;;;16.60;99.90;;;;;;5108904;28;20075;-62
2021/12/31 02:28:19;;;;;;;9.05;2.13;;;16.50;99.90;;;;;;5110685;28;20125;-60
2021/12/31 02:30:47;;;;;;;5.47;1.90;;;16.40;99.90;;;;;;5107983;28;20126;-64
2021/12/31 02:33:14;;;;;;;9.45;2.53;;;16.30;99.90;;;;;;5110188;28;20168;-61
2021/12/31 02:35:41;;;;;;;13.10;3.42;;;16.20;99.90;;;;;;5110238;28;20073;-63
2021/12/31 02:38:08;;;;;;;8.70;2.88;;;16.20;99.90;;;;;;5109361;28;20076;-65
2021/12/31 02:40:36;;;;;;;7.15;2.80;;;16.10;99.90;;;;;;5108408;28;20076;-63
2021/12/31 02:43:03;;;;;;;10.68;3.08;;;16.10;99.90;;;;;;5109303;28;20111;-61
2021/12/31 02:45:32;;;;;;;6.70;2.50;;;16.10;99.90;;;;;;5140685;27;20167;-62
2021/12/31 02:48:02;;;;;;;16.25;3.20;;;16.10;99.90;;;;;;5108908;28;20080;-63
2021/12/31 02:50:34;;;;;;;8.32;3.33;;;16.00;99.90;;;;;;5109835;28;20068;-65
2021/12/31 02:53:12;;;;;;;9.73;3.47;;;15.90;99.90;;;;;;5111287;28;20172;-63
2021/12/31 02:55:40;;;;;;;8.35;2.97;;;15.90;99.90;;;;;;5110857;28;20549;-62
2021/12/31 02:58:07;;;;;;;6.32;3.45;;;15.80;99.90;;;;;;5109373;28;20083;-63
2021/12/31 03:00:37;;;;;;;7.13;3.22;;;15.70;99.90;;;;;;5109998;28;20076;-62
2021/12/31 03:03:07;;;;;;;7.38;3.22;;;15.80;99.90;;;;;;5109225;28;20225;-62
2021/12/31 03:05:35;;;;;;;9.93;2.83;;;15.60;99.90;;;;;;5110327;28;20587;-62
2021/12/31 03:08:10;;;;;;;6.97;3.05;;;15.60;99.90;;;;;;5110394;28;20095;-63
2021/12/31 03:10:37;;;;;;;4.72;2.63;;;15.50;99.90;;;;;;5111801;28;20068;-65
2021/12/31 03:13:04;;;;;;;8.30;3.10;;;15.50;99.90;;;;;;5103424;28;20116;-61
2021/12/31 03:15:31;;;;;;;6.88;3.28;;;15.50;99.90;;;;;;5095779;28;20186;-66
2021/12/31 03:18:02;;;;;;;7.35;1.77;;;15.50;99.90;;;;;;5095520;28;20431;-65
2021/12/31 03:20:41;;;;;;;9.18;4.50;;;15.40;99.90;;;;;;5096648;28;20076;-62
2021/12/31 03:23:07;;;;;;;9.10;3.40;;;15.40;99.90;;;;;;5094654;28;20480;-64
2021/12/31 03:25:34;;;;;;;8.80;4.90;;;15.30;99.90;;;;;;5094504;28;20095;-65
2021/12/31 03:28:00;;;;;;;11.65;3.97;;;15.30;99.90;;;;;;5093552;28;20165;-63
2021/12/31 03:30:26;;;;;;;;;;;15.30;99.90;;;;;;5096349;28;20493;-63
2021/12/31 03:32:53;;;;;;;7.78;3.53;;;15.40;99.90;;;;;;5094116;28;19983;-62
2021/12/31 03:35:20;;;;;;;7.47;2.47;;;15.40;99.90;;;;;;5079486;28;20072;-63
2021/12/31 03:37:46;;;;;;;;;;;15.40;99.90;;;;;;5077672;28;20079;-63
2021/12/31 03:40:13;;;;;;;10.07;3.15;;;15.40;99.90;;;;;;5095161;28;19961;-64
2021/12/31 03:42:40;;;;;;;7.63;4.18;;;15.30;99.90;;;;;;5095522;28;20088;-64
2021/12/31 03:45:07;;;;;;;11.55;4.72;;;15.30;99.90;;;;;;5093707;28;20075;-63
2021/12/31 03:47:33;;;;;;;7.13;3.85;;;15.30;99.90;;;;;;5093779;28;20068;-64
2021/12/31 03:49:59;;;;;;;9.07;3.38;;;15.30;99.90;;;;;;5093516;28;20085;-62
2021/12/31 03:52:25;;;;;;;;;;;15.30;99.90;;;;;;5094874;28;20077;-62
2021/12/31 03:54:52;;;;;;;15.82;4.80;;;15.20;99.90;;;;;;5094851;28;20001;-63
2021/12/31 03:57:18;;;;;;;;;;;15.20;99.90;;;;;;5097070;28;20194;-64
2021/12/31 03:59:44;;;;;;;14.77;5.20;;;15.10;99.90;;;;;;5099047;28;19956;-63
2021/12/31 04:02:10;;;;;;;;;;;15.10;99.90;;;;;;5126347;27;20096;-64
2021/12/31 04:04:36;;;;;;;14.27;4.60;;;15.10;99.90;;;;;;5094343;28;19972;-65
2021/12/31 04:07:03;;;;;;;10.13;4.88;;;15.00;99.90;;;;;;5079143;28;20072;-63
2021/12/31 04:09:29;;;;;;;15.52;7.15;;;15.00;99.90;;;;;;5093074;28;20079;-63
2021/12/31 04:11:55;;;;;;;;;;;15.10;99.90;;;;;;5095969;28;20109;-63
2021/12/31 04:14:22;;;;;;;13.80;8.02;;;15.00;99.90;;;;;;5092114;28;19963;-63
2021/12/31 04:16:48;;;;;;;;;;;15.00;99.90;;;;;;5096252;28;20107;-64
2021/12/31 04:19:14;;;;;;;12.00;5.50;;;15.10;99.90;;;;;;5093528;28;19956;-63
2021/12/31 04:21:43;;;;;;;18.13;8.93;;;15.00;99.90;;;;;;5095015;28;20100;-64
2021/12/31 04:24:16;;;;;;;15.23;7.75;;;15.00;99.90;;;;;;5094894;28;20095;-63
2021/12/31 04:26:43;;;;;;;12.07;6.00;;;15.10;99.90;;;;;;5093247;28;20542;-64
2021/12/31 04:29:09;;;;;;;17.17;7.63;;;15.10;99.90;;;;;;5095216;28;20084;-62
2021/12/31 04:31:35;;;;;;;;;;;15.10;99.90;;;;;;5094054;28;20586;-63
2021/12/31 04:34:04;;;;;;;18.42;8.20;;;15.10;99.90;;;;;;5092250;28;19961;-64
2021/12/31 04:36:30;;;;;;;12.20;5.53;;;15.10;99.90;;;;;;5088906;28;20096;-64
2021/12/31 04:38:57;;;;;;;12.90;5.30;;;15.10;99.90;;;;;;5093820;28;20553;-64
2021/12/31 04:41:23;;;;;;;;;;;15.10;99.90;;;;;;5095408;28;20235;-65
2021/12/31 04:43:49;;;;;;;12.57;6.03;;;15.10;99.90;;;;;;5094493;28;19957;-65
2021/12/31 04:46:16;;;;;;;17.23;6.72;;;15.00;99.90;;;;;;5094475;28;20873;-63
2021/12/31 04:48:42;;;;;;;;;;;15.00;99.90;;;;;;5094578;28;20072;-62
2021/12/31 04:51:08;;;;;;;12.65;7.40;;;15.00;99.90;;;;;;5094172;28;20007;-64
2021/12/31 04:53:35;;;;;;;13.10;7.57;;;15.00;99.90;;;;;;5095181;28;20076;-62
2021/12/31 04:56:01;;;;;;;13.05;8.70;;;15.00;99.90;;;;;;5076408;28;20167;-63
2021/12/31 04:58:27;;;;;;;;;;;15.00;99.90;;;;;;5096858;28;20165;-63
2021/12/31 05:00:53;;;;;;;17.50;10.77;;;15.00;99.90;;;;;;5090736;28;19964;-62
2021/12/31 05:03:20;;;;;;;;;;;14.90;99.90;;;;;;5076861;28;20096;-63
2021/12/31 05:05:46;;;;;;;17.50;10.73;;;14.90;99.90;;;;;;5073884;28;20320;-65
2021/12/31 05:08:13;;;;;;;16.23;10.50;;;15.00;99.90;;;;;;5093729;28;20076;-69
2021/12/31 05:10:39;;;;;;;;;;;15.00;99.90;;;;;;5097591;28;20404;-63
2021/12/31 05:13:06;;;;;;;17.75;9.90;;;15.00;99.90;;;;;;5094636;28;19992;-63
2021/12/31 05:15:38;;;;;;;14.32;9.88;;;15.00;99.90;;;;;;5092988;28;20077;-67
2021/12/31 05:18:04;;;;;;;12.77;8.82;;;15.00;99.90;;;;;;5094583;28;20073;-64
2021/12/31 05:20:30;;;;;;;;;;;15.00;99.90;;;;;;5093597;28;20073;-63
2021/12/31 05:23:00;;;;;;;14.98;9.93;;;14.90;99.90;;;;;;5095166;28;19976;-67
2021/12/31 05:25:27;;;;;;;18.45;10.00;;;14.90;99.90;;;;;;5091292;28;20106;-63
2021/12/31 05:27:54;;;;;;;12.50;7.63;;;15.00;99.90;;;;;;5094263;28;20087;-65
2021/12/31 05:30:21;;;;;;;12.27;6.10;;;14.90;99.90;;;;;;5092196;28;20146;-64
2021/12/31 05:32:48;;;;;;;10.45;4.65;;;14.90;99.90;;;;;;5080317;28;20504;-65
2021/12/31 05:35:15;;;;;;;11.65;4.80;;;14.90;99.90;;;;;;5092781;28;20084;-65
2021/12/31 05:37:41;;;;;;;12.32;5.57;;;14.90;99.90;;;;;;5092080;28;20447;-63
2021/12/31 05:40:08;;;;;;;12.88;7.43;;;14.90;99.90;;;;;;5092570;28;20076;-66
2021/12/31 05:42:34;;;;;;;17.70;11.48;;;14.90;99.90;;;;;;5093064;28;20547;-65
2021/12/31 05:45:01;;;;;;;;;;;14.90;99.90;;;;;;5092330;28;20190;-63
2021/12/31 05:47:27;;;;;;;12.43;9.35;;;14.80;99.90;;;;;;5092605;28;19964;-62
2021/12/31 05:49:53;;;;;;;;;;;14.80;99.90;;;;;;5092345;28;20069;-65
2021/12/31 05:52:21;;;;;;;19.75;9.98;;;14.80;99.90;;;;;;5093341;28;19956;-64
2021/12/31 05:54:47;;;;;;;17.98;9.75;;;14.80;99.90;;;;;;5091756;28;20077;-64
2021/12/31 05:57:14;;;;;;;17.27;10.43;;;14.80;99.90;;;;;;5093433;28;20092;-63
2021/12/31 05:59:40;;;;;;;12.85;7.90;;;14.70;99.90;;;;;;5092470;28;20447;-65
2021/12/31 06:02:06;;;;;;;;;;;14.70;99.90;;;;;;5092524;28;20444;-63
2021/12/31 06:04:32;;;;;;;9.85;6.07;;;14.70;99.90;;;;;;5095592;28;19960;-64
2021/12/31 06:06:58;;;;;;;;;;;14.60;99.90;;;;;;5091803;28;20597;-63
2021/12/31 06:09:25;;;;;;;13.05;6.13;;;14.60;99.90;;;;;;5090975;28;20007;-64
2021/12/31 06:11:51;;;;;;;;;;;14.70;99.90;;;;;;5093470;28;20113;-64
2021/12/31 06:14:17;;;;;;;10.40;5.30;;;14.70;99.90;;;;;;5093254;28;19956;-65
2021/12/31 06:16:46;;;;;;;10.40;4.80;;;14.70;99.90;;;;;;5093714;28;20458;-66
2021/12/31 06:19:14;;;;;;;11.90;5.18;;;14.70;99.90;;;;;;5093737;28;20229;-63
2021/12/31 06:21:42;;;;;;;12.07;6.15;;;14.70;99.90;;;;;;5092440;28;20085;-64
2021/12/31 06:24:10;;;;;;;14.18;5.82;;;14.60;99.90;;;;;;5091985;28;20107;-64
2021/12/31 06:26:36;;;;;;;9.80;5.40;;;14.60;99.90;;;;;;5090854;28;20447;-63
2021/12/31 06:29:04;;;;;;;10.00;5.72;;;14.60;99.90;;;;;;5072387;28;20089;-64
2021/12/31 06:31:31;;;;;;;12.93;6.53;;;14.60;99.90;;;;;;5074232;28;20075;-63
2021/12/31 06:33:57;;;;;;;12.55;6.68;;;14.60;99.90;;;;;;5072445;28;20092;-62
2021/12/31 06:36:24;;;;;;;17.63;6.80;;;14.50;99.90;;;;;;5122498;28;20104;-63
2021/12/31 06:38:51;;;;;;;;;;;14.50;99.90;;;;;;5123072;27;20134;-62
2021/12/31 06:41:18;;;;;;;14.43;7.20;;;14.50;99.90;;;;;;5075557;28;19981;-61
2021/12/31 06:43:44;;;;;;;14.10;6.78;;;14.50;99.90;;;;;;5089978;28;20076;-60
2021/12/31 06:46:11;;;;;;;11.10;6.50;;;14.50;99.90;;;;;;5091014;28;20118;-59
2021/12/31 06:48:37;;;;;;;;;;;14.50;99.90;;;;;;5090945;28;20107;-62
2021/12/31 06:51:03;;;;;;;12.20;6.45;;;14.50;99.90;;;;;;5091872;28;19996;-62
2021/12/31 06:53:29;;;;;;;;;;;14.60;99.90;;;;;;5093821;28;20068;-61
2021/12/31 06:55:56;;;;;;;13.45;7.05;;;14.60;99.90;;;;;;5091985;28;20342;-60
2021/12/31 06:58:22;;;;;;;12.95;6.55;;;14.50;99.90;;;;;;5092403;28;20079;-59
2021/12/31 07:00:48;;;;;;;;;;;14.40;99.90;;;;;;5093010;28;20478;-62
2021/12/31 07:03:14;;;;;;;13.18;7.00;;;14.40;99.90;;;;;;5092734;28;19976;-60
2021/12/31 07:05:43;;;;;;;11.00;6.68;;;14.40;99.90;;;;;;5092462;28;20073;-60
2021/12/31 07:08:10;;;;;;;13.40;7.72;;;14.40;99.90;;;;;;5092962;28;20091;-59
2021/12/31 07:10:37;;;;;;;23.10;7.20;;;14.40;99.90;;;;;;5092995;28;20087;-61
2021/12/31 07:13:10;;;;;;;13.30;7.68;;;14.40;99.90;;;;;;5076010;28;20575;-63
2021/12/31 07:15:40;;;;;;;12.23;6.32;;;14.50;99.90;;;;;;5093033;28;20451;-61
2021/12/31 07:18:08;;;;;;;9.43;5.72;;;14.50;99.90;;;;;;5092536;28;20101;-60
2021/12/31 07:20:35;;;;;;;10.68;5.88;;;14.60;99.90;;;;;;5092149;27;20072;-60
2021/12/31 07:23:09;;;;;;;13.63;6.10;;;14.60;99.90;;;;;;5091561;28;20134;-61
2021/12/31 07:25:38;;;;;;;15.48;6.50;;;14.60;99.90;;;;;;5093668;28;20092;-58
2021/12/31 07:28:05;;;;;;;9.63;6.25;;;14.60;99.90;;;;;;5105698;27;20438;-62
2021/12/31 07:30:31;;;;;;;15.27;5.80;;;14.50;99.90;;;;;;5091917;28;20069;-60
2021/12/31 07:32:57;;;;;;;;;;;14.60;99.90;;;;;;5092961;28;20088;-60
2021/12/31 07:35:25;;;;;;;11.45;5.10;;;14.50;99.90;;;;;;5091627;28;19956;-58
2021/12/31 07:37:55;;;;;;;8.43;5.00;;;14.50;99.90;;;;;;5086322;28;20106;-59
2021/12/31 07:40:26;;;;;;;11.20;5.38;;;14.50;99.90;;;;;;5091745;28;20072;-60
2021/12/31 07:42:53;;;;;;;10.02;5.25;;;14.50;99.90;;;;;;5075117;28;20092;-62
2021/12/31 07:45:20;;;;;;;10.38;5.55;;;14.50;99.90;;;;;;5092202;28;20543;-61
2021/12/31 07:47:47;;;;;;;9.98;5.00;;;14.40;99.90;;;;;;5093568;28;20151;-60
2021/12/31 07:50:13;;;;;;;12.35;5.15;;;14.40;99.90;;;;;;5092804;28;20080;-61
2021/12/31 07:52:40;;;;;;;8.77;5.13;;;14.40;99.90;;;;;;5094447;28;20077;-62
2021/12/31 07:55:06;;;;;;;;;;;14.40;99.90;;;;;;5091967;28;20080;-60
2021/12/31 07:57:32;;;;;;;8.23;4.85;;;14.40;99.90;;;;;;5091598;28;19988;-62
2021/12/31 07:59:58;;;;;;;8.57;5.50;;;14.40;99.90;;;;;;5093069;28;20085;-59
2021/12/31 08:02:25;;;;;;;10.85;5.35;;;14.40;99.90;;;;;;5092149;28;20092;-60
2021/12/31 08:04:51;;;;;;;;;;;14.40;99.90;;;;;;5075437;28;20097;-60
2021/12/31 08:07:17;;;;;;;12.13;5.13;;;14.40;99.90;;;;;;5091581;28;19956;-61
2021/12/31 08:09:43;;;;;;;;;;;14.40;99.90;;;;;;5093170;28;20243;-61
2021/12/31 08:12:10;;;;;;;8.52;4.65;;;14.40;99.90;;;;;;5090993;28;20212;-61
2021/12/31 08:14:36;;;;;;;;;;;14.40;99.90;;;;;;5093907;28;20072;-60
2021/12/31 08:17:02;;;;;;;9.77;5.10;;;14.50;99.90;;;;;;5091139;28;20312;-62
2021/12/31 08:19:28;;;;;;;;;;;14.40;99.90;;;;;;5092758;28;20546;-59
2021/12/31 08:21:54;;;;;;;8.57;4.50;;;14.50;99.90;;;;;;5091332;28;20017;-61
2021/12/31 08:24:20;;;;;;;;;;;14.50;99.90;;;;;;5089051;28;20156;-61
2021/12/31 08:26:47;;;;;;;6.60;4.15;;;14.50;99.90;;;;;;5091553;28;20059;-61
2021/12/31 08:29:13;;;;;;;;;;;14.50;99.90;;;;;;5090106;28;20101;-60
2021/12/31 08:31:43;;;;;;;11.05;4.90;;;14.50;99.90;;;;;;5121881;27;19981;-59
2021/12/31 08:34:09;;;;;;;10.65;5.18;;;14.50;99.90;;;;;;5120569;27;20068;-63
2021/12/31 08:36:36;;;;;;;9.70;5.57;;;14.50;99.90;;;;;;5074719;28;20088;-61
2021/12/31 08:39:07;;;;;;;10.07;5.05;;;14.60;99.90;;;;;;5075370;28;20085;-61
2021/12/31 08:41:35;;;;;;;8.82;5.13;;;14.60;99.90;;;;;;5092670;28;20112;-60
2021/12/31 08:44:01;;;;;;;11.98;5.55;;;14.50;99.90;;;;;;5092223;28;20075;-62
2021/12/31 08:46:27;;;;;;;;;;;14.50;99.90;;;;;;5092095;28;20068;-60
2021/12/31 08:48:53;;;;;;;7.30;4.53;;;14.50;99.90;;;;;;5092273;28;19992;-61
2021/12/31 08:51:20;;;;;;;11.73;5.88;;;14.50;99.90;;;;;;5091350;28;20093;-60
2021/12/31 08:53:46;;;;;;;11.20;6.20;;;14.50;99.90;;;;;;5073670;28;20535;-61
2021/12/31 08:56:13;;;;;;;12.50;7.07;;;14.50;99.90;;;;;;5073205;28;20084;-61
2021/12/31 08:58:39;;;;;;;;;;;14.50;99.90;;;;;;5091692;28;20445;-61
2021/12/31 09:01:05;;;;;;;11.52;8.30;;;14.50;99.90;;;;;;5089506;28;20391;-62
2021/12/31 09:03:32;;;;;;;14.07;9.93;;;14.50;99.90;;;;;;5073661;28;20497;-62
2021/12/31 09:05:58;;;;;;;;;;;14.50;99.90;;;;;;5090629;28;20088;-61
2021/12/31 09:08:24;;;;;;;16.60;8.00;;;14.50;99.90;;;;;;5092990;28;20004;-60
2021/12/31 09:10:50;;;;;;;;;;;14.60;99.90;;;;;;5075235;28;20081;-66
2021/12/31 09:13:17;;;;;;;17.30;7.47;;;14.50;99.90;;;;;;5092080;28;19988;-64
2021/12/31 09:15:43;;;;;;;13.88;7.45;;;14.60;99.90;;;;;;5092072;28;20080;-63
2021/12/31 09:18:09;;;;;;;;;;;14.50;99.90;;;;;;5074699;28;20125;-61
2021/12/31 09:20:35;;;;;;;14.75;7.82;;;14.60;99.90;;;;;;5089412;28;20392;-62
2021/12/31 09:23:02;;;;;;;;;;;14.60;99.90;;;;;;5093283;28;20439;-62
2021/12/31 09:25:29;;;;;;;12.00;7.40;;;14.60;99.90;;;;;;5091081;28;20029;-64
2021/12/31 09:27:55;;;;;;;10.18;6.72;;;14.70;99.90;;;;;;5089477;28;20480;-63
2021/12/31 09:30:21;;;;;;;;;;;14.70;99.90;;;;;;5090650;28;20071;-63
2021/12/31 09:32:48;;;;;;;16.25;8.88;;;14.70;99.90;;;;;;5091415;28;20327;-61
2021/12/31 09:35:14;;;;;;;;;;;14.70;99.90;;;;;;5089195;28;20109;-62
2021/12/31 09:37:40;;;;;;;15.52;9.40;;;14.70;99.90;;;;;;5091540;28;19964;-61
2021/12/31 09:40:08;;;;;;;11.82;8.70;;;14.70;99.90;;;;;;5089968;28;20077;-63
2021/12/31 09:42:36;;;;;;;14.40;8.57;;;14.70;99.90;;;;;;5089267;28;20095;-62
2021/12/31 09:45:03;;;;;;;10.45;7.80;;;14.70;99.90;;;;;;5090715;28;20254;-61
2021/12/31 09:47:29;;;;;;;12.13;7.68;;;14.70;99.90;;;;;;5090766;28;20072;-62
2021/12/31 09:49:55;;;;;;;;;;;14.70;99.90;;;;;;5091557;28;20581;-63
2021/12/31 09:52:23;;;;;;;10.95;7.18;;;14.70;99.90;;;;;;5093840;28;19956;-61
2021/12/31 09:54:50;;;;;;;11.55;6.80;;;14.70;99.90;;;;;;5086835;28;20098;-64
2021/12/31 09:57:20;;;;;;;8.73;6.07;;;14.70;99.90;;;;;;5092630;28;20423;-61
2021/12/31 09:59:47;;;;;;;11.00;5.95;;;14.70;99.90;;;;;;5089358;28;20076;-62
2021/12/31 10:02:15;;;;;;;10.43;6.22;;;14.70;99.90;;;;;;5090301;28;20547;-62
2021/12/31 10:04:55;;;;;;;8.40;5.75;;;14.70;99.90;;;;;;5090735;28;20064;-61
2021/12/31 10:07:23;;;;;;;9.75;6.38;;;14.60;99.90;;;;;;5090019;28;20069;-62
2021/12/31 10:10:02;;;;;;;11.07;6.30;;;14.60;99.90;;;;;;5089386;28;20112;-62
2021/12/31 10:12:48;;;;;;;12.32;5.53;;;14.60;99.90;;;;;;5089389;28;20478;-62
2021/12/31 10:15:17;;;;;;;12.50;6.65;;;14.60;99.90;;;;;;5088117;28;20072;-62
2021/12/31 10:17:44;;;;;;;10.52;6.30;;;14.50;99.90;;;;;;5090807;28;20152;-62
2021/12/31 10:20:11;;;;;;;12.68;6.07;;;14.50;99.90;;;;;;5091279;28;20152;-62
2021/12/31 10:22:37;;;;;;;9.82;6.20;;;14.40;99.90;;;;;;5090961;28;20084;-62
2021/12/31 10:25:17;;;;;;;;;;;14.40;99.90;;;;;;5096482;28;20077;-61
2021/12/31 10:27:44;;;;;;;11.75;6.25;;;14.30;99.90;;;;;;5076681;28;19956;-61
2021/12/31 10:30:11;;;;;;;10.27;6.20;;;14.30;99.90;;;;;;5093227;28;20119;-61
2021/12/31 10:32:40;;;;;;;7.53;6.22;;;14.30;99.90;;;;;;5095046;28;20087;-62
2021/12/31 10:35:09;;;;;;;13.25;6.20;;;14.30;99.90;;;;;;5091763;28;20088;-62
2021/12/31 10:37:45;;;;;;;11.18;4.93;;;14.30;99.90;;;;;;5093098;28;20072;-63
2021/12/31 10:40:24;;;;;;;9.05;5.25;;;14.30;99.90;;;;;;5093991;28;20076;-62
2021/12/31 10:43:05;;;;;;;7.15;4.95;;;14.20;99.90;;;;;;5095122;28;20085;-62
2021/12/31 10:45:31;;;;;;;14.88;5.65;;;14.10;99.90;;;;;;5094043;28;20073;-61
2021/12/31 10:48:09;;;;;;;9.75;5.95;;;14.10;99.90;;;;;;5091493;28;20447;-62
2021/12/31 10:50:37;;;;;;;6.75;5.28;;;14.10;99.90;;;;;;5092814;28;20439;-62
2021/12/31 10:55:39;;;;;;;8.40;5.70;;;14.10;99.90;;;;;;5093701;28;20084;-61
2021/12/31 10:58:14;;;;;;;11.02;6.43;;;14.20;99.90;;;;;;5092335;28;20527;-62
2021/12/31 11:00:44;;;;;;;10.93;6.65;;;14.20;99.90;;;;;;5123304;27;20121;-62
2021/12/31 11:03:11;;;;;;;12.40;8.15;;;14.20;99.90;;;;;;5090312;28;20093;-64
2021/12/31 11:05:37;;;;;;;11.20;7.93;;;14.20;99.90;;;;;;5093065;28;20458;-64
2021/12/31 11:08:07;;;;;;;12.27;8.00;;;14.20;99.90;;;;;;5093195;28;20069;-61
2021/12/31 11:10:38;;;;;;;10.77;8.05;;;14.20;99.90;;;;;;5092875;28;20081;-60
2021/12/31 11:13:16;;;;;;;10.68;7.55;;;14.20;99.90;;;;;;5091402;28;20474;-61
2021/12/31 11:15:44;;;;;;;10.48;7.90;;;14.20;99.90;;;;;;5091292;28;20146;-61
2021/12/31 11:18:18;;;;;;;11.65;7.70;;;14.20;99.90;;;;;;5076261;28;20112;-61
2021/12/31 11:20:46;;;;;;;8.85;7.72;;;14.20;99.90;;;;;;5095293;28;20091;-61
2021/12/31 11:23:13;;;;;;;10.75;7.43;;;14.20;99.90;;;;;;5091794;28;20100;-61
2021/12/31 11:25:57;;;;;;;;;;;14.20;99.90;;;;;;5075911;28;20121;-62
2021/12/31 11:28:46;;;;;;;9.75;6.93;;;14.20;99.90;;;;;;5092812;28;20043;-64
2021/12/31 11:31:18;;;;;;;8.23;6.65;;;14.20;99.90;;;;;;5091450;28;20405;-62
2021/12/31 11:33:47;;;;;;;11.23;6.90;;;14.20;99.90;;;;;;5091312;28;20093;-62
2021/12/31 11:36:14;;;;;;;9.60;7.18;;;14.10;99.90;;;;;;5093864;28;20073;-63
2021/12/31 11:38:42;;;;;;;12.70;7.43;;;14.10;99.90;;;;;;5091952;28;20111;-61
2021/12/31 11:41:22;;;;;;;11.93;7.82;;;14.10;99.90;;;;;;5092390;28;20124;-62
2021/12/31 11:44:10;;;;;;;13.02;7.95;;;14.10;99.90;;;;;;5104646;27;20120;-62
2021/12/31 11:46:40;;;;;;;11.70;8.30;;;14.10;99.90;;;;;;5092624;28;20068;-64
2021/12/31 11:49:11;;;;;;;11.10;8.32;;;14.10;99.90;;;;;;5092564;28;20142;-62
2021/12/31 11:51:55;;;;;;;14.82;7.70;;;14.10;99.90;;;;;;5093604;28;20147;-62
2021/12/31 11:54:22;;;;;;;10.35;7.38;;;14.10;99.90;;;;;;5092296;28;20420;-62
2021/12/31 11:56:59;;;;;;;;;;;14.20;99.90;;;;;;5092760;28;20124;-62
2021/12/31 11:59:31;;;;;;;15.23;7.60;;;14.20;99.90;;;;;;5091915;28;19960;-62
2021/12/31 12:02:19;;;;;;;9.80;7.05;;;14.20;99.90;;;;;;5092207;28;20134;-62
2021/12/31 12:04:46;;;;;;;8.25;6.80;;;14.20;99.90;;;;;;5091732;28;20089;-61
2021/12/31 12:07:16;;;;;;;15.07;7.30;;;14.20;99.90;;;;;;5091210;28;20096;-62
2021/12/31 12:09:45;;;;;;;7.70;6.60;;;14.20;99.90;;;;;;5089769;28;20077;-62
2021/12/31 12:12:28;;;;;;;18.13;6.65;;;14.20;99.90;;;;;;5090753;28;20111;-64
2021/12/31 12:14:56;;;;;;;9.88;6.13;;;14.20;99.90;;;;;;5092307;28;20115;-61
2021/12/31 12:17:29;;;;;;;12.82;7.43;;;14.10;99.90;;;;;;5093380;28;20297;-61
2021/12/31 12:20:02;;;;;;;7.93;5.93;;;14.10;99.90;;;;;;5092203;28;20183;-60
2021/12/31 12:22:33;;;;;;;10.05;6.13;;;14.20;99.90;;;;;;5093920;28;20088;-61
2021/12/31 12:25:21;;;;;;;9.65;7.22;;;14.10;99.90;;;;;;5122066;27;20589;-62
2021/12/31 12:27:52;;;;;;;8.73;6.10;;;14.20;99.90;;;;;;5087951;28;20544;-60
2021/12/31 12:30:19;;;;;;;9.50;6.47;;;14.20;99.90;;;;;;5091184;28;20073;-63
2021/12/31 12:35:19;;;;;;;12.13;9.23;;;14.10;99.90;;;;;;5092955;28;20283;-61
2021/12/31 12:37:55;;;;;;;12.75;9.80;;;14.10;99.90;;;;;;5092338;28;20076;-62
2021/12/31 12:40:53;;;;;;;16.45;12.18;;;14.10;99.90;;;;;;5092858;28;20107;-62
2021/12/31 12:43:24;;;;;;;9.27;7.95;;;14.10;99.90;;;;;;5089766;28;20489;-60
2021/12/31 12:45:57;;;;;;;10.20;7.70;;;14.10;99.90;;;;;;5090336;28;20424;-61
2021/12/31 12:48:38;;;;;;;10.45;7.75;;;14.00;99.90;;;;;;5091360;28;20071;-62
2021/12/31 12:51:07;;;;;;;9.65;7.43;;;13.90;99.90;;;;;;5091123;28;20075;-61
2021/12/31 12:53:37;;;;;;;11.73;8.40;;;13.90;99.90;;;;;;5090307;28;20080;-61
2021/12/31 12:56:07;;;;;;;10.02;7.22;;;13.90;99.90;;;;;;5088864;28;20428;-63
2021/12/31 12:58:37;;;;;;;8.95;7.15;;;14.00;99.90;;;;;;5090285;28;20093;-63
2021/12/31 13:01:06;;;;;;;10.00;7.65;;;13.90;99.90;;;;;;5089650;28;20073;-62
2021/12/31 13:03:54;;;;;;;10.82;7.00;;;13.90;99.90;;;;;;5091132;28;20099;-62
2021/12/31 13:06:25;;;;;;;10.30;8.20;;;13.90;99.90;;;;;;5091132;28;20072;-61
2021/12/31 13:09:30;;;;;;;12.00;9.20;;;13.90;99.90;;;;;;5121272;27;20127;-61
2021/12/31 13:12:02;;;;;;;11.65;8.52;;;13.90;99.90;;;;;;5089281;28;20179;-62
2021/12/31 13:14:37;;;;;;;10.82;8.98;;;13.90;99.90;;;;;;5089373;28;20594;-62
2021/12/31 13:17:03;;;;;;;11.88;9.05;;;13.80;99.90;;;;;;5120282;27;20099;-62
2021/12/31 13:19:36;;;;;;;10.80;8.15;;;13.90;99.90;;;;;;5091691;28;20103;-62